createdAt,value
2019-02-19T00:00:33.705Z,56.07
2019-02-19T00:03:05.171Z,55.60
2019-02-19T00:05:36.241Z,55.39
2019-02-19T00:08:07.397Z,56.81
2019-02-19T00:10:39.556Z,57.70
2019-02-19T00:13:10.757Z,56.96
2019-02-19T00:15:41.834Z,55.28
2019-02-19T00:18:12.914Z,55.46
2019-02-19T00:20:44.089Z,56.70
2019-02-19T00:23:15.200Z,55.26
2019-02-19T00:25:46.191Z,57.52
2019-02-19T00:28:17.319Z,56.60
2019-02-19T00:30:48.315Z,55.76
2019-02-19T00:33:19.454Z,56.57
2019-02-19T00:35:50.562Z,55.80
2019-02-19T00:38:21.658Z,54.76
2019-02-19T00:40:52.718Z,55.70
2019-02-19T00:43:31.182Z,54.40
2019-02-19T00:46:02.361Z,53.46
2019-02-19T00:48:33.559Z,54.09
2019-02-19T00:51:04.810Z,53.21
2019-02-19T00:53:36.077Z,53.36
2019-02-19T00:56:07.158Z,53.49
2019-02-19T00:58:38.178Z,54.09
2019-02-19T01:01:09.425Z,53.09
2019-02-19T01:03:40.635Z,52.50
2019-02-19T01:06:11.787Z,52.29
2019-02-19T01:08:43.934Z,53.85
2019-02-19T01:11:15.256Z,52.76
2019-02-19T01:13:46.485Z,53.16
2019-02-19T01:16:17.531Z,53.00
2019-02-19T01:18:48.555Z,52.21
2019-02-19T01:21:19.651Z,51.91
2019-02-19T01:23:50.883Z,52.30
2019-02-19T01:26:21.987Z,52.23
2019-02-19T01:28:53.002Z,54.71
2019-02-19T01:31:24.118Z,53.33
2019-02-19T01:33:55.286Z,53.91
2019-02-19T01:36:26.288Z,53.98
2019-02-19T01:38:57.611Z,54.41
2019-02-19T01:41:28.612Z,52.95
2019-02-19T01:43:59.669Z,52.68
2019-02-19T01:46:30.659Z,53.20
2019-02-19T01:49:01.861Z,52.30
2019-02-19T01:51:33.003Z,52.27
2019-02-19T01:54:04.366Z,53.18
2019-02-19T01:56:35.378Z,52.19
2019-02-19T01:59:06.458Z,52.83
2019-02-19T02:01:37.633Z,52.43
2019-02-19T02:04:08.651Z,52.25
2019-02-19T02:06:39.711Z,53.17
2019-02-19T02:09:10.876Z,52.67
2019-02-19T02:11:42.033Z,52.82
2019-02-19T02:14:13.083Z,52.77
2019-02-19T02:16:44.171Z,52.81
2019-02-19T02:19:15.264Z,53.05
2019-02-19T02:21:46.406Z,53.19
2019-02-19T02:24:17.478Z,52.88
2019-02-19T02:26:48.637Z,52.85
2019-02-19T02:29:19.905Z,53.33
2019-02-19T02:31:51.033Z,53.43
2019-02-19T02:34:22.170Z,53.31
2019-02-19T02:36:53.270Z,53.55
2019-02-19T02:39:24.308Z,53.51
2019-02-19T02:41:55.391Z,53.79
2019-02-19T02:44:26.434Z,54.01
2019-02-19T02:46:57.517Z,54.38
2019-02-19T02:49:28.583Z,54.52
2019-02-19T02:51:59.581Z,54.73
2019-02-19T02:54:30.779Z,54.81
2019-02-19T02:57:01.792Z,54.99
2019-02-19T02:59:33.169Z,55.46
2019-02-19T03:02:04.335Z,55.27
2019-02-19T03:04:35.422Z,55.65
2019-02-19T03:07:14.488Z,55.78
2019-02-19T03:09:45.497Z,55.94
2019-02-19T03:12:16.678Z,56.04
2019-02-19T03:14:47.782Z,56.18
2019-02-19T03:17:18.943Z,56.30
2019-02-19T03:19:49.987Z,56.59
2019-02-19T03:22:20.964Z,56.63
2019-02-19T03:24:52.004Z,56.61
2019-02-19T03:27:23.063Z,57.01
2019-02-19T03:29:55.039Z,56.88
2019-02-19T03:32:26.058Z,57.20
2019-02-19T03:34:57.064Z,57.44
2019-02-19T03:37:28.076Z,57.67
2019-02-19T03:39:59.111Z,57.86
2019-02-19T03:42:30.166Z,58.11
2019-02-19T03:45:01.250Z,58.36
2019-02-19T03:47:32.324Z,58.95
2019-02-19T03:50:03.604Z,59.11
2019-02-19T03:52:34.783Z,58.64
2019-02-19T03:55:05.952Z,58.54
2019-02-19T03:57:37.106Z,59.16
2019-02-19T04:00:08.381Z,59.12
2019-02-19T04:02:39.453Z,59.82
2019-02-19T04:05:10.636Z,59.99
2019-02-19T04:07:41.685Z,59.77
2019-02-19T04:10:12.767Z,59.58
2019-02-19T04:12:43.823Z,59.76
2019-02-19T04:15:14.995Z,59.64
2019-02-19T04:17:46.062Z,60.11
2019-02-19T04:20:17.250Z,59.85
2019-02-19T04:22:48.317Z,59.50
2019-02-19T04:25:19.624Z,59.95
2019-02-19T04:27:50.612Z,59.80
2019-02-19T04:30:21.680Z,60.15
2019-02-19T04:32:52.889Z,59.99
2019-02-19T04:35:23.929Z,60.20
2019-02-19T04:37:55.003Z,60.10
2019-02-19T04:40:26.106Z,60.34
2019-02-19T04:42:57.083Z,60.37
2019-02-19T04:45:28.090Z,60.21
2019-02-19T04:48:00.589Z,60.04
2019-02-19T04:50:31.642Z,60.14
2019-02-19T04:53:02.636Z,60.14
2019-02-19T04:55:33.717Z,60.79
2019-02-19T04:58:04.868Z,60.87
2019-02-19T05:00:36.113Z,61.33
2019-02-19T05:03:07.128Z,61.32
2019-02-19T05:05:38.215Z,61.36
2019-02-19T05:08:09.231Z,61.57
2019-02-19T05:10:40.268Z,62.37
2019-02-19T05:13:11.342Z,61.29
2019-02-19T05:15:42.535Z,61.17
2019-02-19T05:18:13.528Z,61.75
2019-02-19T05:20:44.607Z,61.85
2019-02-19T05:23:15.710Z,62.11
2019-02-19T05:25:46.733Z,61.89
2019-02-19T05:28:17.710Z,62.65
2019-02-19T05:30:48.863Z,62.87
2019-02-19T05:33:19.994Z,63.27
2019-02-19T05:35:50.999Z,63.63
2019-02-19T05:38:23.076Z,64.18
2019-02-19T05:40:54.158Z,63.55
2019-02-19T05:43:25.220Z,64.19
2019-02-19T05:45:56.361Z,64.24
2019-02-19T05:48:27.619Z,64.09
2019-02-19T05:50:58.823Z,64.47
2019-02-19T05:53:30.027Z,64.35
2019-02-19T05:56:01.121Z,65.29
2019-02-19T05:58:32.370Z,62.94
2019-02-19T06:01:03.450Z,63.24
2019-02-19T06:03:34.587Z,63.73
2019-02-19T06:06:05.754Z,64.35
2019-02-19T06:08:36.751Z,65.35
2019-02-19T06:11:07.803Z,64.95
2019-02-19T06:13:38.980Z,66.28
2019-02-19T06:16:10.122Z,65.75
2019-02-19T06:18:41.118Z,66.01
2019-02-19T06:21:12.216Z,66.30
2019-02-19T06:23:43.254Z,66.49
2019-02-19T06:26:14.423Z,66.48
2019-02-19T06:28:45.581Z,65.82
2019-02-19T06:31:16.650Z,68.39
2019-02-19T06:33:47.703Z,68.72
2019-02-19T06:36:18.788Z,66.23
2019-02-19T06:38:49.989Z,65.13
2019-02-19T06:41:21.146Z,65.06
2019-02-19T06:43:52.292Z,64.41
2019-02-19T06:46:23.381Z,63.67
2019-02-19T06:48:54.486Z,63.29
2019-02-19T06:51:25.582Z,64.51
2019-02-19T06:53:56.567Z,63.99
2019-02-19T06:56:27.591Z,64.10
2019-02-19T06:58:58.681Z,63.62
2019-02-19T07:01:58.005Z,63.42
2019-02-19T07:04:42.239Z,62.33
2019-02-19T07:07:13.326Z,62.85
2019-02-19T07:09:45.389Z,62.02
2019-02-19T07:12:16.557Z,63.16
2019-02-19T07:14:47.662Z,62.46
2019-02-19T07:17:18.846Z,62.18
2019-02-19T07:19:49.903Z,61.78
2019-02-19T07:22:20.945Z,61.58
2019-02-19T07:24:52.038Z,61.20
2019-02-19T07:27:23.469Z,61.32
2019-02-19T07:29:54.490Z,61.19
2019-02-19T07:32:25.585Z,60.87
2019-02-19T07:34:56.654Z,60.45
2019-02-19T07:37:27.652Z,60.53
2019-02-19T07:39:58.720Z,60.68
2019-02-19T07:42:29.985Z,60.18
2019-02-19T07:45:00.976Z,59.81
2019-02-19T07:47:32.243Z,59.29
2019-02-19T07:50:03.615Z,58.29
2019-02-19T07:52:34.652Z,57.85
2019-02-19T07:55:06.226Z,57.30
2019-02-19T07:57:37.324Z,57.45
2019-02-19T08:00:09.278Z,57.15
2019-02-19T08:02:40.355Z,57.20
2019-02-19T08:05:11.532Z,56.57
2019-02-19T08:07:43.969Z,56.60
2019-02-19T08:10:14.980Z,56.35
2019-02-19T08:12:47.474Z,55.87
2019-02-19T08:15:18.642Z,55.82
2019-02-19T08:17:49.823Z,55.20
2019-02-19T08:20:20.949Z,55.00
2019-02-19T08:22:51.983Z,54.81
2019-02-19T08:25:23.083Z,55.13
2019-02-19T08:27:54.172Z,54.65
2019-02-19T08:30:25.185Z,54.05
2019-02-19T08:32:56.270Z,54.19
2019-02-19T08:35:27.277Z,53.67
2019-02-19T08:37:59.333Z,53.12
2019-02-19T08:40:30.373Z,53.30
2019-02-19T08:43:01.475Z,52.84
2019-02-19T08:45:32.615Z,52.06
2019-02-19T08:48:03.799Z,52.13
2019-02-19T08:50:34.790Z,51.59
2019-02-19T08:53:05.936Z,52.03
2019-02-19T08:55:37.059Z,51.26
2019-02-19T08:58:08.190Z,51.38
2019-02-19T09:00:39.335Z,50.63
2019-02-19T09:03:10.399Z,49.71
2019-02-19T09:05:41.491Z,50.16
2019-02-19T09:08:12.589Z,49.10
2019-02-19T09:10:43.653Z,49.21
2019-02-19T09:13:14.688Z,48.45
2019-02-19T09:15:45.740Z,48.08
2019-02-19T09:18:16.763Z,48.41
2019-02-19T09:20:47.752Z,48.04
2019-02-19T09:23:18.760Z,47.55
2019-02-19T09:25:49.757Z,47.58
2019-02-19T09:28:20.850Z,46.98
2019-02-19T09:30:51.841Z,47.31
2019-02-19T09:33:23.009Z,45.78
2019-02-19T09:35:54.022Z,45.95
2019-02-19T09:38:25.108Z,44.90
2019-02-19T09:40:56.208Z,44.87
2019-02-19T09:43:35.294Z,45.67
2019-02-19T09:46:00.317Z,45.84
2019-02-19T09:48:31.409Z,45.43
2019-02-19T09:51:02.494Z,44.25
2019-02-19T09:53:33.639Z,44.96
2019-02-19T09:56:04.839Z,44.96
2019-02-19T09:58:35.925Z,44.78
2019-02-19T10:01:07.190Z,45.27
2019-02-19T10:03:38.270Z,44.99
2019-02-19T10:06:09.327Z,44.72
2019-02-19T10:08:40.348Z,44.62
2019-02-19T10:11:11.446Z,44.55
2019-02-19T10:13:44.029Z,44.55
2019-02-19T10:16:15.093Z,44.54
2019-02-19T10:18:46.258Z,44.88
2019-02-19T10:21:17.300Z,44.16
2019-02-19T10:23:48.397Z,44.64
2019-02-19T10:26:19.476Z,44.27
2019-02-19T10:28:50.594Z,44.30
2019-02-19T10:31:21.749Z,44.88
2019-02-19T10:33:52.830Z,44.58
2019-02-19T10:36:23.971Z,43.87
2019-02-19T10:38:55.071Z,44.04
2019-02-19T10:41:26.343Z,43.82
2019-02-19T10:43:57.406Z,43.65
2019-02-19T10:46:28.498Z,43.33
2019-02-19T10:48:59.610Z,43.70
2019-02-19T10:51:30.782Z,43.08
2019-02-19T10:54:01.874Z,42.98
2019-02-19T10:56:33.022Z,42.90
2019-02-19T10:59:04.255Z,42.27
2019-02-19T11:01:35.513Z,42.24
2019-02-19T11:04:06.541Z,41.93
2019-02-19T11:06:38.989Z,41.89
2019-02-19T11:09:10.152Z,41.85
2019-02-19T11:11:41.252Z,41.83
2019-02-19T11:14:12.292Z,41.20
2019-02-19T11:16:43.381Z,41.07
2019-02-19T11:19:14.434Z,40.66
2019-02-19T11:21:45.532Z,40.01
2019-02-19T11:24:17.985Z,39.27
2019-02-19T11:26:49.073Z,38.97
2019-02-19T11:29:20.086Z,38.07
2019-02-19T11:31:51.946Z,37.27
2019-02-19T11:34:23.030Z,36.83
2019-02-19T11:36:54.160Z,36.45
2019-02-19T11:39:25.264Z,37.42
2019-02-19T11:41:56.281Z,38.14
2019-02-19T11:44:27.323Z,38.03
2019-02-19T11:46:58.503Z,38.86
2019-02-19T11:49:29.645Z,39.84
2019-02-19T11:52:00.700Z,40.56
2019-02-19T11:54:31.872Z,41.05
2019-02-19T11:57:02.911Z,41.06
2019-02-19T11:59:33.973Z,41.44
2019-02-19T12:02:08.799Z,41.60
2019-02-19T12:04:39.854Z,41.46
2019-02-19T12:07:10.997Z,42.10
2019-02-19T12:09:42.004Z,41.86
2019-02-19T12:12:13.097Z,42.36
2019-02-19T12:14:44.250Z,42.52
2019-02-19T12:17:15.315Z,42.81
2019-02-19T12:19:46.470Z,42.97
2019-02-19T12:22:17.555Z,43.04
2019-02-19T12:24:48.647Z,42.82
2019-02-19T12:27:19.822Z,42.86
2019-02-19T12:29:51.579Z,42.60
2019-02-19T12:32:22.638Z,42.68
2019-02-19T12:34:53.654Z,42.15
2019-02-19T12:37:24.662Z,42.02
2019-02-19T12:39:55.671Z,42.02
2019-02-19T12:42:26.792Z,41.68
2019-02-19T12:44:57.878Z,41.85
2019-02-19T12:47:28.939Z,41.72
2019-02-19T12:49:59.981Z,40.18
2019-02-19T12:52:31.091Z,38.52
2019-02-19T12:55:02.258Z,36.40
2019-02-19T12:57:33.274Z,33.25
2019-02-19T13:00:04.663Z,34.08
2019-02-19T13:02:36.116Z,38.97
2019-02-19T13:05:09.026Z,38.20
2019-02-19T13:07:40.183Z,38.21
2019-02-19T13:10:11.588Z,37.40
2019-02-19T13:12:42.735Z,37.31
2019-02-19T13:15:14.683Z,36.61
2019-02-19T13:17:45.793Z,37.36
2019-02-19T13:20:16.902Z,37.98
2019-02-19T13:22:47.968Z,39.67
2019-02-19T13:25:19.142Z,40.25
2019-02-19T13:27:50.143Z,39.28
2019-02-19T13:30:21.258Z,38.80
2019-02-19T13:32:52.270Z,38.34
2019-02-19T13:35:23.434Z,39.03
2019-02-19T13:37:54.452Z,38.37
2019-02-19T13:40:25.552Z,38.50
2019-02-19T13:42:56.692Z,37.93
2019-02-19T13:45:27.852Z,36.70
2019-02-19T13:48:05.675Z,36.38
2019-02-19T13:50:31.877Z,35.90
2019-02-19T13:53:24.865Z,33.58
2019-02-19T13:55:57.197Z,35.42
2019-02-19T13:58:28.313Z,36.24
2019-02-19T14:00:59.577Z,37.06
2019-02-19T14:03:30.847Z,37.53
2019-02-19T14:06:02.021Z,36.38
2019-02-19T14:08:33.016Z,36.22
2019-02-19T14:11:04.150Z,36.68
2019-02-19T14:13:35.222Z,36.75
2019-02-19T14:16:16.810Z,37.32
2019-02-19T14:18:53.347Z,37.59
2019-02-19T14:21:42.693Z,38.39
2019-02-19T14:24:31.487Z,34.47
2019-02-19T14:27:15.319Z,33.31
2019-02-19T14:30:13.910Z,34.82
2019-02-19T14:33:10.103Z,36.86
2019-02-19T14:35:59.080Z,35.28
2019-02-19T14:38:44.677Z,33.99
2019-02-19T14:41:45.216Z,31.05
2019-02-19T14:44:37.757Z,32.58
2019-02-19T14:47:34.718Z,36.23
2019-02-19T14:50:27.719Z,36.38
2019-02-19T14:53:32.891Z,38.27
2019-02-19T14:56:31.759Z,39.14
2019-02-19T14:59:21.849Z,39.52
2019-02-19T15:02:17.724Z,40.07
2019-02-19T15:05:06.369Z,40.15
2019-02-19T15:08:05.327Z,40.38
2019-02-19T15:10:55.408Z,40.70
2019-02-19T15:13:39.682Z,41.04
2019-02-19T15:16:24.677Z,40.67
2019-02-19T15:19:19.726Z,40.92
2019-02-19T15:22:12.695Z,41.81
2019-02-19T15:24:58.820Z,42.60
2019-02-19T15:27:57.994Z,43.49
2019-02-19T15:30:57.117Z,43.38
2019-02-19T15:33:45.885Z,43.70
2019-02-19T15:36:48.314Z,44.01
2019-02-19T15:39:41.172Z,44.14
2019-02-19T15:42:31.317Z,44.61
2019-02-19T15:45:13.250Z,44.81
2019-02-19T15:48:05.736Z,44.94
2019-02-19T15:51:03.167Z,44.99
2019-02-19T15:53:47.734Z,44.89
2019-02-19T15:56:30.884Z,44.54
2019-02-19T15:59:19.733Z,44.83
2019-02-19T16:02:07.187Z,44.24
2019-02-19T16:04:42.681Z,44.85
2019-02-19T16:07:20.158Z,45.67
2019-02-19T16:10:03.119Z,45.64
2019-02-19T16:12:52.283Z,46.06
2019-02-19T16:15:47.133Z,46.37
2019-02-19T16:18:37.170Z,46.74
2019-02-19T16:21:17.842Z,47.43
2019-02-19T16:24:02.386Z,47.89
2019-02-19T16:26:43.036Z,48.10
2019-02-19T16:29:29.371Z,48.23
2019-02-19T16:32:29.767Z,48.52
2019-02-19T16:35:11.287Z,48.70
2019-02-19T16:38:02.270Z,48.98
2019-02-19T16:40:43.052Z,49.07
2019-02-19T16:43:36.130Z,49.34
2019-02-19T16:46:25.355Z,49.35
2019-02-19T16:49:09.414Z,49.62
2019-02-19T16:52:02.714Z,50.00
2019-02-19T16:55:08.105Z,50.58
2019-02-19T16:58:03.777Z,50.69
2019-02-19T17:00:56.646Z,50.85
2019-02-19T17:03:43.315Z,51.27
2019-02-19T17:06:33.462Z,51.11
2019-02-19T17:09:34.899Z,51.00
2019-02-19T17:12:21.637Z,51.22
2019-02-19T17:15:14.527Z,51.54
2019-02-19T17:18:10.473Z,51.68
2019-02-19T17:21:00.564Z,52.09
2019-02-19T17:23:39.921Z,52.14
2019-02-19T17:26:16.224Z,51.99
2019-02-19T17:29:06.493Z,53.09
2019-02-19T17:32:00.596Z,52.76
2019-02-19T17:34:39.600Z,52.54
2019-02-19T17:37:29.734Z,53.15
2019-02-19T17:40:31.829Z,52.99
2019-02-19T17:43:14.175Z,53.55
2019-02-19T17:45:59.074Z,53.25
2019-02-19T17:48:49.144Z,53.46
2019-02-19T17:51:31.424Z,53.49
2019-02-19T17:54:24.599Z,53.57
2019-02-19T17:57:14.950Z,53.90
2019-02-19T17:59:55.379Z,54.16
2019-02-19T18:02:41.353Z,54.37
2019-02-19T18:05:37.691Z,54.38
2019-02-19T18:08:42.870Z,54.49
2019-02-19T18:11:42.219Z,54.81
2019-02-19T18:14:36.000Z,54.65
2019-02-19T18:17:35.078Z,55.00
2019-02-19T18:20:06.511Z,54.82
2019-02-19T18:22:37.595Z,54.77
2019-02-19T18:25:08.772Z,54.94
2019-02-19T18:27:39.880Z,55.02
2019-02-19T18:30:11.054Z,54.87
2019-02-19T18:32:42.229Z,54.89
2019-02-19T18:35:13.292Z,55.00
2019-02-19T18:37:44.389Z,55.02
2019-02-19T18:40:15.505Z,55.13
2019-02-19T18:42:46.614Z,55.26
2019-02-19T18:45:17.756Z,55.71
2019-02-19T18:47:48.789Z,55.84
2019-02-19T18:50:20.045Z,56.02
2019-02-19T18:52:51.148Z,56.41
2019-02-19T18:55:22.310Z,56.69
2019-02-19T18:57:53.314Z,56.94
2019-02-19T19:00:24.475Z,57.06
2019-02-19T19:02:55.711Z,57.09
2019-02-19T19:05:26.893Z,57.41
2019-02-19T19:07:58.175Z,57.48
2019-02-19T19:10:29.379Z,57.60
2019-02-19T19:13:00.502Z,57.79
2019-02-19T19:15:31.713Z,58.01
2019-02-19T19:18:02.828Z,58.12
2019-02-19T19:20:33.907Z,58.34
2019-02-19T19:23:05.625Z,58.46
2019-02-19T19:25:36.741Z,58.63
2019-02-19T19:28:08.007Z,58.69
2019-02-19T19:30:38.947Z,58.86
2019-02-19T19:33:09.941Z,59.25
2019-02-19T19:35:41.095Z,59.54
2019-02-19T19:38:12.104Z,60.53
2019-02-19T19:40:43.176Z,60.21
2019-02-19T19:43:15.323Z,60.50
2019-02-19T19:45:46.496Z,60.58
2019-02-19T19:48:17.539Z,60.82
2019-02-19T19:50:48.547Z,60.88
2019-02-19T19:53:19.721Z,61.19
2019-02-19T19:55:50.737Z,61.89
2019-02-19T19:58:21.937Z,61.61
2019-02-19T20:00:52.944Z,61.95
2019-02-19T20:03:24.051Z,62.06
2019-02-19T20:05:55.166Z,62.20
2019-02-19T20:08:26.292Z,62.44
2019-02-19T20:10:57.413Z,62.98
2019-02-19T20:13:28.693Z,62.64
2019-02-19T20:16:01.254Z,62.72
2019-02-19T20:18:38.910Z,62.69
2019-02-19T20:21:05.219Z,62.64
2019-02-19T20:23:36.470Z,62.73
2019-02-19T20:26:07.542Z,62.78
2019-02-19T20:28:39.618Z,63.02
2019-02-19T20:31:10.786Z,63.33
2019-02-19T20:33:41.866Z,63.46
2019-02-19T20:36:13.018Z,63.27
2019-02-19T20:38:44.155Z,63.37
2019-02-19T20:41:15.258Z,63.49
2019-02-19T20:43:46.463Z,63.47
2019-02-19T20:46:17.583Z,63.58
2019-02-19T20:48:49.790Z,63.74
2019-02-19T20:51:20.909Z,63.93
2019-02-19T20:53:52.063Z,63.80
2019-02-19T20:56:23.241Z,64.47
2019-02-19T20:58:54.336Z,64.31
2019-02-19T21:01:25.504Z,64.25
2019-02-19T21:03:56.632Z,65.66
2019-02-19T21:06:27.825Z,67.03
2019-02-19T21:08:59.187Z,66.73
2019-02-19T21:11:30.243Z,65.32
2019-02-19T21:14:01.353Z,65.07
2019-02-19T21:16:32.455Z,65.80
2019-02-19T21:19:03.565Z,65.66
2019-02-19T21:21:34.634Z,65.20
2019-02-19T21:24:05.848Z,65.37
2019-02-19T21:26:37.033Z,65.68
2019-02-19T21:29:08.061Z,65.47
2019-02-19T21:31:40.374Z,65.51
2019-02-19T21:34:11.703Z,65.91
2019-02-19T21:36:42.707Z,65.89
2019-02-19T21:39:13.955Z,66.11
2019-02-19T21:41:45.631Z,65.55
2019-02-19T21:44:17.003Z,66.51
2019-02-19T21:46:48.162Z,66.01
2019-02-19T21:49:19.329Z,65.40
2019-02-19T21:51:54.127Z,65.24
2019-02-19T21:54:23.297Z,65.06
2019-02-19T21:56:54.389Z,65.10
2019-02-19T21:59:25.548Z,66.21
2019-02-19T22:01:56.695Z,66.70
2019-02-19T22:04:27.878Z,67.80
2019-02-19T22:06:59.076Z,68.88
2019-02-19T22:09:30.128Z,69.18
2019-02-19T22:12:02.472Z,69.10
2019-02-19T22:14:33.891Z,68.56
2019-02-19T22:17:05.067Z,68.23
2019-02-19T22:19:36.181Z,68.34
2019-02-19T22:22:15.532Z,69.48
2019-02-19T22:24:46.684Z,69.62
2019-02-19T22:27:21.325Z,69.08
2019-02-19T22:29:54.268Z,68.57
2019-02-19T22:32:25.554Z,67.66
2019-02-19T22:34:56.761Z,67.66
2019-02-19T22:37:27.846Z,68.95
2019-02-19T22:39:59.248Z,69.30
2019-02-19T22:42:33.459Z,69.78
2019-02-19T22:45:04.815Z,69.64
2019-02-19T22:47:37.215Z,69.54
2019-02-19T22:50:08.618Z,69.07
2019-02-19T22:52:40.387Z,69.07
2019-02-19T22:55:27.420Z,68.66
2019-02-19T22:57:58.754Z,68.76
2019-02-19T23:00:50.663Z,68.25
2019-02-19T23:03:26.221Z,67.88
2019-02-19T23:05:57.517Z,67.10
2019-02-19T23:08:28.630Z,66.76
2019-02-19T23:11:00.164Z,66.62
2019-02-19T23:13:33.607Z,66.34
2019-02-19T23:16:04.955Z,66.19
2019-02-19T23:18:36.416Z,66.20
2019-02-19T23:21:07.512Z,66.30
2019-02-19T23:23:41.766Z,66.51
2019-02-19T23:26:12.822Z,66.55
2019-02-19T23:28:44.256Z,66.67
2019-02-19T23:31:15.404Z,66.83
2019-02-19T23:33:46.390Z,66.71
2019-02-19T23:36:33.945Z,66.55
2019-02-19T23:39:07.723Z,66.92
2019-02-19T23:41:40.433Z,67.56
2019-02-19T23:44:12.518Z,67.81
2019-02-19T23:46:44.101Z,68.17
2019-02-19T23:49:15.224Z,67.58
2019-02-19T23:51:46.408Z,66.97
2019-02-19T23:54:17.665Z,67.22
2019-02-19T23:56:50.843Z,67.34
2019-02-19T23:59:21.995Z,67.47
